Terminal Aerodrome Forecast
Issued by NWS

Home | Current Version | Previous Version | Text Only | Print | Product List | Glossary On
Versions: 1 2 3 4 5 6 7 8 9 10 11 12 13 14 15 16 17 18 19 20 21 22 23 24 25 26 27
000
FTUS41 KGYX 261133
TAFLEB
TAF
KLEB 261133Z 2612/2712 VRB04KT P6SM -SHRA SCT050 BKN100
     FM261400 30005KT P6SM SCT080 BKN200
     FM262000 36006KT P6SM -SHRA BKN025
     FM270000 VRB03KT 4SM -SHRA BR OVC015
     FM270700 02006KT P6SM BKN025=

USA.gov is the U.S. government's official web portal to all federal, state and local government web resources and services.